createdAt,value
2022-08-05T00:02:15.108Z,4.50
2022-08-05T00:18:07.610Z,4.40
2022-08-05T00:21:59.823Z,4.20
2022-08-05T00:25:52.777Z,4.50
2022-08-05T00:29:46.842Z,4.30
2022-08-05T00:49:22.651Z,4.10
2022-08-05T00:54:01.004Z,4.10
2022-08-05T00:57:38.184Z,4.30
2022-08-05T01:17:30.924Z,4.50
2022-08-05T01:21:40.719Z,4.60
2022-08-05T01:25:52.363Z,4.30
2022-08-05T01:29:25.009Z,4.30
2022-08-05T01:33:19.635Z,4.40
2022-08-05T01:41:08.975Z,3.80
2022-08-05T01:45:03.251Z,4.30
2022-08-05T01:48:54.959Z,4.50
2022-08-05T02:00:54.020Z,4.30
2022-08-05T02:04:49.501Z,4.40
2022-08-05T02:08:44.826Z,5.00
2022-08-05T02:13:02.618Z,4.40
2022-08-05T02:20:38.965Z,4.50
2022-08-05T02:40:16.833Z,4.60
2022-08-05T02:44:12.266Z,4.60
2022-08-05T02:48:06.860Z,4.40
2022-08-05T02:52:07.600Z,4.80
2022-08-05T03:11:55.509Z,5.20
2022-08-05T03:15:52.407Z,4.30
2022-08-05T03:31:57.151Z,7.90
2022-08-05T03:35:44.384Z,4.90
2022-08-05T03:39:57.794Z,7.40
2022-08-05T03:52:37.444Z,5.60
2022-08-05T03:56:18.089Z,6.00
2022-08-05T04:00:22.931Z,5.30
2022-08-05T04:24:04.716Z,5.50
2022-08-05T04:27:57.363Z,7.70
2022-08-05T04:31:53.920Z,8.60
2022-08-05T04:47:22.207Z,10.50
2022-08-05T04:51:15.124Z,9.70
2022-08-05T04:55:14.423Z,9.90
2022-08-05T04:59:23.877Z,9.50
2022-08-05T05:19:19.042Z,7.00
2022-08-05T05:23:19.841Z,6.60
2022-08-05T05:27:14.445Z,6.00
2022-08-05T05:46:40.420Z,4.50
2022-08-05T05:50:41.292Z,4.00
2022-08-05T05:54:50.363Z,3.80
2022-08-05T06:21:24.151Z,4.30
2022-08-05T06:25:25.339Z,3.90
2022-08-05T06:28:54.637Z,3.70
2022-08-05T06:32:24.903Z,4.00
2022-08-05T06:36:04.022Z,3.80
2022-08-05T06:59:30.563Z,3.60
2022-08-05T07:02:32.341Z,3.00
2022-08-05T07:05:41.154Z,3.90
2022-08-05T07:08:21.136Z,3.00
2022-08-05T07:11:17.376Z,3.10
2022-08-05T07:14:20.598Z,3.00
2022-08-05T07:17:58.332Z,3.20
2022-08-05T07:20:32.822Z,3.40
2022-08-05T07:23:29.707Z,2.90
2022-08-05T07:26:35.226Z,2.80
2022-08-05T07:30:24.160Z,2.40
2022-08-05T07:32:40.519Z,3.20
2022-08-05T07:36:04.000Z,2.80
2022-08-05T07:38:33.471Z,2.80
2022-08-05T07:42:07.277Z,2.90
2022-08-05T07:44:19.210Z,2.70
2022-08-05T07:46:52.474Z,2.40
2022-08-05T07:49:24.133Z,2.50
2022-08-05T07:51:56.162Z,2.70
2022-08-05T07:54:31.227Z,2.50
2022-08-05T07:57:41.834Z,2.40
2022-08-05T08:00:28.271Z,2.30
2022-08-05T08:03:15.109Z,2.10
2022-08-05T08:05:49.570Z,2.10
2022-08-05T08:08:20.565Z,2.10
2022-08-05T08:10:51.071Z,2.30
2022-08-05T08:13:29.434Z,2.40
2022-08-05T08:16:49.818Z,2.20
2022-08-05T08:18:56.852Z,2.40
2022-08-05T08:21:27.946Z,2.20
2022-08-05T08:24:02.891Z,2.30
2022-08-05T08:26:37.268Z,2.20
2022-08-05T08:29:45.373Z,2.50
2022-08-05T08:32:07.895Z,2.00
2022-08-05T08:34:45.821Z,2.30
2022-08-05T08:37:18.835Z,2.30
2022-08-05T08:39:52.723Z,2.60
2022-08-05T08:42:34.298Z,2.20
2022-08-05T08:45:26.247Z,2.50
2022-08-05T08:48:12.485Z,2.30
2022-08-05T08:51:22.447Z,2.50
2022-08-05T08:53:45.070Z,2.40
2022-08-05T08:56:18.116Z,2.20
2022-08-05T08:58:48.806Z,2.20
2022-08-05T09:01:20.670Z,2.00
2022-08-05T09:03:55.712Z,2.20
2022-08-05T09:06:36.233Z,1.80
2022-08-05T09:09:06.789Z,2.10
2022-08-05T09:11:51.911Z,1.60
2022-08-05T09:14:56.817Z,1.60
2022-08-05T09:17:40.698Z,1.70
2022-08-05T09:20:08.623Z,2.20
2022-08-05T09:23:19.093Z,2.20
2022-08-05T09:26:01.420Z,1.70
2022-08-05T09:28:36.687Z,2.10
2022-08-05T09:31:43.666Z,2.50
2022-08-05T09:34:11.801Z,2.30
2022-08-05T09:36:55.715Z,2.40
2022-08-05T09:39:45.225Z,2.20
2022-08-05T09:42:28.450Z,2.50
2022-08-05T09:46:04.981Z,2.50
2022-08-05T09:48:00.137Z,2.10
2022-08-05T09:50:44.704Z,2.50
2022-08-05T09:53:26.069Z,2.50
2022-08-05T09:56:13.261Z,2.30
2022-08-05T09:59:05.194Z,2.30
2022-08-05T10:01:39.675Z,2.30
2022-08-05T10:04:16.087Z,2.50
2022-08-05T10:06:59.448Z,2.30
2022-08-05T10:09:30.274Z,2.10
2022-08-05T10:12:30.785Z,2.50
2022-08-05T10:15:26.179Z,2.30
2022-08-05T10:18:09.354Z,2.50
2022-08-05T10:20:50.838Z,2.90
2022-08-05T10:23:55.609Z,2.60
2022-08-05T10:26:18.965Z,2.30
2022-08-05T10:28:56.396Z,2.40
2022-08-05T10:33:00.860Z,2.10
2022-08-05T10:34:20.003Z,2.00
2022-08-05T10:36:57.434Z,2.20
2022-08-05T10:39:59.289Z,2.20
2022-08-05T10:42:33.892Z,2.10
2022-08-05T10:45:21.589Z,2.00
2022-08-05T10:48:29.147Z,2.20
2022-08-05T10:51:21.836Z,2.20
2022-08-05T10:53:52.176Z,2.10
2022-08-05T10:56:31.659Z,2.30
2022-08-05T10:59:12.727Z,2.30
2022-08-05T11:02:14.554Z,2.10
2022-08-05T11:05:10.468Z,1.80
2022-08-05T11:11:44.629Z,2.10
2022-08-05T11:15:00.945Z,2.00
2022-08-05T11:17:59.689Z,2.10
2022-08-05T11:20:46.474Z,1.70
2022-08-05T11:24:05.751Z,1.90
2022-08-05T11:26:32.977Z,1.80
2022-08-05T11:29:12.880Z,1.90
2022-08-05T11:31:54.469Z,1.80
2022-08-05T11:34:51.102Z,1.90
2022-08-05T11:38:37.005Z,2.00
2022-08-05T11:41:35.510Z,1.70
2022-08-05T11:44:08.114Z,2.00
2022-08-05T11:46:58.647Z,2.20
2022-08-05T11:49:42.908Z,2.20
2022-08-05T11:52:13.621Z,1.90
2022-08-05T11:54:48.514Z,1.80
2022-08-05T11:57:30.608Z,1.80
2022-08-05T12:00:30.411Z,1.80
2022-08-05T12:03:31.687Z,1.90
2022-08-05T12:06:06.447Z,2.00
2022-08-05T12:08:51.284Z,2.00
2022-08-05T12:11:24.422Z,1.80
2022-08-05T12:14:04.050Z,1.90
2022-08-05T12:16:46.363Z,1.70
2022-08-05T12:20:25.724Z,1.80
2022-08-05T12:22:09.715Z,1.80
2022-08-05T12:24:49.565Z,1.70
2022-08-05T12:27:25.232Z,1.60
2022-08-05T12:30:08.900Z,2.10
2022-08-05T12:32:53.705Z,1.90
2022-08-05T12:35:37.136Z,1.60
2022-08-05T12:38:10.950Z,1.80
2022-08-05T12:40:44.213Z,1.70
2022-08-05T12:43:21.081Z,1.60
2022-08-05T12:45:57.196Z,1.80
2022-08-05T12:48:32.541Z,1.70
2022-08-05T12:52:11.158Z,1.60
2022-08-05T12:54:05.000Z,1.60
2022-08-05T12:56:53.061Z,1.90
2022-08-05T12:59:46.714Z,1.80
2022-08-05T13:02:30.676Z,1.80
2022-08-05T13:05:01.178Z,1.80
2022-08-05T13:07:57.410Z,1.90
2022-08-05T13:10:24.699Z,1.60
2022-08-05T13:12:58.456Z,1.80
2022-08-05T13:15:35.932Z,1.80
2022-08-05T13:18:20.347Z,1.70
2022-08-05T13:20:50.980Z,1.80
2022-08-05T13:23:22.577Z,1.90
2022-08-05T13:25:59.394Z,2.20
2022-08-05T13:28:32.297Z,1.50
2022-08-05T13:31:11.094Z,1.60
2022-08-05T13:34:25.027Z,1.80
2022-08-05T13:36:36.423Z,1.70
2022-08-05T13:39:08.343Z,1.70
2022-08-05T13:41:39.108Z,1.90
2022-08-05T13:44:10.129Z,2.00
2022-08-05T13:49:31.613Z,1.90
2022-08-05T13:52:29.173Z,1.60
2022-08-05T13:54:59.662Z,1.70
2022-08-05T13:57:51.011Z,1.90
2022-08-05T14:00:27.358Z,1.90
2022-08-05T14:03:01.149Z,1.80
2022-08-05T14:06:04.876Z,1.80
2022-08-05T14:08:27.650Z,1.80
2022-08-05T14:11:19.822Z,1.70
2022-08-05T14:13:55.014Z,1.80
2022-08-05T14:16:32.329Z,1.70
2022-08-05T14:19:04.623Z,1.90
2022-08-05T14:22:10.107Z,1.60
2022-08-05T14:24:26.245Z,1.80
2022-08-05T14:27:17.542Z,1.70
2022-08-05T14:29:51.343Z,1.50
2022-08-05T14:32:27.704Z,1.80
2022-08-05T14:34:59.193Z,1.60
2022-08-05T14:37:45.288Z,1.80
2022-08-05T14:40:18.148Z,1.60
2022-08-05T14:42:48.842Z,1.80
2022-08-05T14:45:19.087Z,1.60
2022-08-05T14:48:03.916Z,1.70
2022-08-05T14:50:40.810Z,1.70
2022-08-05T14:53:12.750Z,1.70
2022-08-05T14:55:43.596Z,1.80
2022-08-05T14:58:22.327Z,1.60
2022-08-05T15:00:58.932Z,1.60
2022-08-05T15:06:15.403Z,1.80
2022-08-05T15:08:59.170Z,1.60
2022-08-05T15:11:51.732Z,1.70
2022-08-05T15:14:34.887Z,1.70
2022-08-05T15:17:45.030Z,1.60
2022-08-05T15:20:18.282Z,1.80
2022-08-05T15:22:52.172Z,1.60
2022-08-05T15:25:51.169Z,1.60
2022-08-05T15:28:16.230Z,2.00
2022-08-05T15:30:53.102Z,1.60
2022-08-05T15:34:04.614Z,1.70
2022-08-05T15:36:17.185Z,1.70
2022-08-05T15:41:00.213Z,1.70
2022-08-05T15:41:56.034Z,1.50
2022-08-05T15:44:30.159Z,2.00
2022-08-05T15:47:02.059Z,1.90
2022-08-05T15:49:55.124Z,2.40
2022-08-05T15:52:29.383Z,2.20
2022-08-05T15:55:17.970Z,1.60
2022-08-05T15:57:48.989Z,1.70
2022-08-05T16:00:26.064Z,1.70
2022-08-05T16:03:03.685Z,1.60
2022-08-05T16:05:33.602Z,1.70
2022-08-05T16:08:04.984Z,1.90
2022-08-05T16:10:33.832Z,1.40
2022-08-05T16:13:05.986Z,2.10
2022-08-05T16:15:34.644Z,1.80
2022-08-05T16:18:09.158Z,1.40
2022-08-05T16:20:38.610Z,1.70
2022-08-05T16:23:09.400Z,1.70
2022-08-05T16:25:39.659Z,1.60
2022-08-05T16:28:11.249Z,1.90
2022-08-05T16:30:41.674Z,1.50
2022-08-05T16:33:11.973Z,1.60
2022-08-05T16:35:47.764Z,1.60
2022-08-05T16:38:25.084Z,1.60
2022-08-05T16:41:00.460Z,1.80
2022-08-05T16:43:36.035Z,1.60
2022-08-05T16:46:23.584Z,1.70
2022-08-05T16:48:53.661Z,1.80
2022-08-05T16:51:30.677Z,1.70
2022-08-05T16:54:16.005Z,1.60
2022-08-05T16:56:48.127Z,1.80
2022-08-05T16:59:25.024Z,1.70
2022-08-05T17:01:58.376Z,1.60
2022-08-05T17:04:31.777Z,1.70
2022-08-05T17:07:11.361Z,1.80
2022-08-05T17:09:58.460Z,1.60
2022-08-05T17:12:50.338Z,1.80
2022-08-05T17:15:20.939Z,1.50
2022-08-05T17:17:55.174Z,1.80
2022-08-05T17:20:26.595Z,1.70
2022-08-05T17:22:58.711Z,1.80
2022-08-05T17:25:39.588Z,2.20
2022-08-05T17:28:11.459Z,1.90
2022-08-05T17:30:52.206Z,1.80
2022-08-05T17:33:23.280Z,1.90
2022-08-05T17:36:08.754Z,2.90
2022-08-05T17:38:41.595Z,2.30
2022-08-05T17:42:18.235Z,2.70
2022-08-05T17:44:02.931Z,2.10
2022-08-05T17:46:36.686Z,2.10
2022-08-05T17:49:10.205Z,2.00
2022-08-05T17:51:40.815Z,2.30
2022-08-05T17:54:10.937Z,2.40
2022-08-05T17:56:41.298Z,2.30
2022-08-05T17:59:24.574Z,2.80
2022-08-05T18:01:56.149Z,3.90
2022-08-05T18:04:31.010Z,3.20
2022-08-05T18:07:03.706Z,2.50
2022-08-05T18:09:59.817Z,2.70
2022-08-05T18:12:33.638Z,2.90
2022-08-05T18:15:06.999Z,2.40
2022-08-05T18:17:59.269Z,2.30
2022-08-05T18:20:33.671Z,2.70
2022-08-05T18:23:15.105Z,2.60
2022-08-05T18:25:57.550Z,2.80
2022-08-05T18:28:40.318Z,3.10
2022-08-05T18:31:43.703Z,2.90
2022-08-05T18:34:23.769Z,3.90
2022-08-05T18:41:54.319Z,5.30
2022-08-05T18:43:58.759Z,5.20
2022-08-05T18:46:59.935Z,4.10
2022-08-05T18:50:03.463Z,3.20
2022-08-05T18:53:22.200Z,3.20
2022-08-05T18:56:37.984Z,3.80
2022-08-05T18:59:42.967Z,3.50
2022-08-05T19:03:04.968Z,2.70
2022-08-05T19:06:21.542Z,2.60
2022-08-05T19:09:30.088Z,3.20
2022-08-05T19:13:17.356Z,3.10
2022-08-05T19:16:46.801Z,3.20
2022-08-05T19:20:06.198Z,2.90
2022-08-05T19:24:05.273Z,3.80
2022-08-05T19:26:55.982Z,3.50
2022-08-05T19:30:30.029Z,3.20
2022-08-05T19:58:53.808Z,2.80
2022-08-05T20:02:37.290Z,2.70
2022-08-05T20:06:01.664Z,3.60
2022-08-05T20:09:55.050Z,2.90
2022-08-05T20:13:30.032Z,2.80
2022-08-05T20:44:17.781Z,3.40
2022-08-05T20:47:34.572Z,3.10
2022-08-05T20:51:08.293Z,2.90
2022-08-05T20:54:59.866Z,3.30
2022-08-05T20:58:01.544Z,2.90
2022-08-05T21:01:16.686Z,3.40
2022-08-05T21:04:39.926Z,3.70
2022-08-05T21:08:11.056Z,3.20
2022-08-05T21:15:13.469Z,4.10
2022-08-05T21:18:37.111Z,2.90
2022-08-05T21:22:23.514Z,3.10
2022-08-05T21:44:37.227Z,4.90
2022-08-05T21:48:29.226Z,5.00
2022-08-05T21:52:21.759Z,4.50
2022-08-05T22:16:00.852Z,3.50
2022-08-05T22:20:03.575Z,3.40
2022-08-05T22:24:12.939Z,3.20
2022-08-05T22:47:29.185Z,3.60
2022-08-05T22:51:23.073Z,3.70
2022-08-05T22:55:56.407Z,3.80
2022-08-05T23:11:36.195Z,5.10
2022-08-05T23:15:35.282Z,4.30
2022-08-05T23:19:23.979Z,4.40
2022-08-05T23:23:19.056Z,5.30
2022-08-05T23:35:36.858Z,4.80
2022-08-05T23:39:44.394Z,4.90
2022-08-05T23:42:39.308Z,4.30
2022-08-05T23:45:14.396Z,4.10
2022-08-05T23:47:48.048Z,4.10
2022-08-05T23:50:20.197Z,4.00
2022-08-05T23:52:51.227Z,3.90
2022-08-05T23:55:24.717Z,4.10
2022-08-05T23:58:03.743Z,3.70
